CSN1462 ZLLL-ZSOF
Flight info
| Callsign | CSN1462 |
|---|---|
| Flight time | N/A |
| Altitude | 33100 |
| Route | BIGUX2G BIGUX W214 HO DCT ZS DCT SHX DCT ML W118 REVKU DCT BIPIM BIP02A |
| Aircraft | A306/H-SDE3FGHIRWY/LB1 |
Departure
| Time | 2026-04-16 07:28 |
|---|---|
| Airport | Lanzhou Zhongchuan International Airport (ZLLL) |
Arrival
| Time | N/A |
|---|---|
| Airport | Hefei Xinqiao International Airport (ZSOF) |
| Time | Latitude | Longitude | Altitude | Speed | Heading |
|---|---|---|---|---|---|
| 2026-04-16 07:07 | 36.52856 | 103.63075 | 6394 ft | 0 kts | 192° |
| 2026-04-16 07:14 | 36.52863 | 103.63077 | 6396 ft | 4 kts | 192° |
| 2026-04-16 07:15 | 36.52890 | 103.63084 | 6393 ft | 4 kts | 192° |
| 2026-04-16 07:15 | 36.52916 | 103.63091 | 6394 ft | 4 kts | 195° |
| 2026-04-16 07:15 | 36.52937 | 103.63100 | 6395 ft | 2 kts | 208° |
| 2026-04-16 07:15 | 36.52946 | 103.63107 | 6394 ft | 2 kts | 234° |
| 2026-04-16 07:16 | 36.52951 | 103.63120 | 6394 ft | 2 kts | 261° |
| 2026-04-16 07:16 | 36.52952 | 103.63133 | 6394 ft | 2 kts | 265° |
| 2026-04-16 07:16 | 36.52952 | 103.63134 | 6395 ft | 0 kts | 265° |
| 2026-04-16 07:21 | 36.52952 | 103.63125 | 6394 ft | 7 kts | 266° |
| 2026-04-16 07:21 | 36.52947 | 103.63004 | 6395 ft | 16 kts | 268° |
| 2026-04-16 07:22 | 36.52941 | 103.62873 | 6395 ft | 14 kts | 266° |
| 2026-04-16 07:22 | 36.52936 | 103.62757 | 6395 ft | 13 kts | 267° |
| 2026-04-16 07:22 | 36.52967 | 103.62683 | 6397 ft | 9 kts | 339° |
| 2026-04-16 07:22 | 36.53018 | 103.62678 | 6397 ft | 6 kts | 358° |
| 2026-04-16 07:23 | 36.53105 | 103.62675 | 6399 ft | 16 kts | 358° |
| 2026-04-16 07:23 | 36.53161 | 103.62614 | 6398 ft | 2 kts | 265° |
| 2026-04-16 07:24 | 36.53157 | 103.62530 | 6398 ft | 0 kts | 267° |
| 2026-04-16 07:25 | 36.53156 | 103.62502 | 6398 ft | 9 kts | 267° |
| 2026-04-16 07:25 | 36.53150 | 103.62424 | 6399 ft | 9 kts | 256° |
| 2026-04-16 07:25 | 36.53115 | 103.62380 | 6398 ft | 6 kts | 194° |
| 2026-04-16 07:26 | 36.53083 | 103.62384 | 6397 ft | 0 kts | 176° |
| 2026-04-16 07:27 | 36.53076 | 103.62384 | 6396 ft | 8 kts | 176° |
| 2026-04-16 07:27 | 36.52872 | 103.62399 | 6395 ft | 58 kts | 176° |
| 2026-04-16 07:27 | 36.52270 | 103.62436 | 6388 ft | 113 kts | 177° |
| 2026-04-16 07:28 | 36.51315 | 103.62499 | 6364 ft | 161 kts | 176° |
| 2026-04-16 07:28 | 36.50059 | 103.62565 | 6526 ft | 190 kts | 178° |
| 2026-04-16 07:28 | 36.48758 | 103.62628 | 7490 ft | 186 kts | 180° |
| 2026-04-16 07:28 | 36.47344 | 103.62674 | 7914 ft | 223 kts | 179° |
| 2026-04-16 07:29 | 36.45670 | 103.62759 | 8272 ft | 258 kts | 179° |
| 2026-04-16 07:29 | 36.43793 | 103.62865 | 8884 ft | 278 kts | 179° |
| 2026-04-16 07:29 | 36.41831 | 103.62978 | 9763 ft | 286 kts | 179° |
| 2026-04-16 07:29 | 36.39819 | 103.63092 | 10657 ft | 293 kts | 179° |
| 2026-04-16 07:30 | 36.37766 | 103.63203 | 11524 ft | 298 kts | 179° |
| 2026-04-16 07:30 | 36.35679 | 103.63318 | 12382 ft | 303 kts | 179° |
| 2026-04-16 07:30 | 36.33555 | 103.63433 | 13246 ft | 308 kts | 179° |
| 2026-04-16 07:30 | 36.31395 | 103.63549 | 14078 ft | 314 kts | 180° |
| 2026-04-16 07:31 | 36.29201 | 103.63671 | 14797 ft | 318 kts | 179° |
| 2026-04-16 07:31 | 36.27000 | 103.64130 | 15515 ft | 326 kts | 162° |
| 2026-04-16 07:31 | 36.25058 | 103.65603 | 16232 ft | 334 kts | 136° |
| 2026-04-16 07:31 | 36.23802 | 103.68018 | 16932 ft | 338 kts | 108° |
| 2026-04-16 07:32 | 36.23440 | 103.70893 | 17644 ft | 340 kts | 90° |
| 2026-04-16 07:32 | 36.23429 | 103.73838 | 18336 ft | 344 kts | 88° |
| 2026-04-16 07:32 | 36.23454 | 103.76820 | 18949 ft | 348 kts | 88° |
| 2026-04-16 07:32 | 36.23447 | 103.79834 | 19552 ft | 352 kts | 90° |
| 2026-04-16 07:33 | 36.23301 | 103.82908 | 19925 ft | 365 kts | 93° |
| 2026-04-16 07:33 | 36.23097 | 103.86102 | 20180 ft | 379 kts | 94° |
| 2026-04-16 07:33 | 36.22876 | 103.89415 | 20442 ft | 393 kts | 94° |
| 2026-04-16 07:33 | 36.22645 | 103.92851 | 20701 ft | 407 kts | 94° |
| 2026-04-16 07:34 | 36.22407 | 103.96404 | 20959 ft | 421 kts | 94° |
| 2026-04-16 07:34 | 36.22160 | 104.00069 | 21221 ft | 433 kts | 94° |
| 2026-04-16 07:34 | 36.21903 | 104.03841 | 21450 ft | 445 kts | 94° |
| 2026-04-16 07:34 | 36.21641 | 104.07703 | 21764 ft | 454 kts | 94° |
| 2026-04-16 07:35 | 36.21375 | 104.11624 | 22184 ft | 460 kts | 94° |
| 2026-04-16 07:35 | 36.21104 | 104.15581 | 22644 ft | 464 kts | 94° |
| 2026-04-16 07:35 | 36.20829 | 104.19577 | 23089 ft | 468 kts | 94° |
| 2026-04-16 07:35 | 36.20550 | 104.23605 | 23537 ft | 471 kts | 95° |
| 2026-04-16 07:36 | 36.20268 | 104.27667 | 23942 ft | 476 kts | 95° |
| 2026-04-16 07:36 | 36.19850 | 104.31740 | 24295 ft | 479 kts | 101° |
| 2026-04-16 07:36 | 36.18951 | 104.35709 | 24686 ft | 480 kts | 111° |
| 2026-04-16 07:36 | 36.17548 | 104.39461 | 25073 ft | 481 kts | 118° |
| 2026-04-16 07:37 | 36.15931 | 104.43099 | 25427 ft | 484 kts | 121° |
| 2026-04-16 07:37 | 36.14215 | 104.46683 | 25779 ft | 486 kts | 122° |
| 2026-04-16 07:37 | 36.12454 | 104.50261 | 26121 ft | 488 kts | 123° |
| 2026-04-16 07:37 | 36.10676 | 104.53853 | 26441 ft | 491 kts | 123° |
| 2026-04-16 07:38 | 36.08897 | 104.57472 | 26764 ft | 494 kts | 123° |
| 2026-04-16 07:38 | 36.07122 | 104.61115 | 27090 ft | 496 kts | 123° |
| 2026-04-16 07:38 | 36.05349 | 104.64782 | 27396 ft | 498 kts | 123° |
| 2026-04-16 07:38 | 36.03572 | 104.68470 | 27692 ft | 501 kts | 123° |
| 2026-04-16 07:39 | 36.01814 | 104.72123 | 27974 ft | 503 kts | 123° |
| 2026-04-16 07:39 | 36.00025 | 104.75843 | 28317 ft | 504 kts | 123° |
| 2026-04-16 07:39 | 35.98236 | 104.79560 | 28754 ft | 503 kts | 123° |
| 2026-04-16 07:39 | 35.96448 | 104.83267 | 29167 ft | 502 kts | 124° |
| 2026-04-16 07:40 | 35.94660 | 104.86966 | 29605 ft | 501 kts | 124° |
| 2026-04-16 07:40 | 35.92874 | 104.90659 | 30026 ft | 501 kts | 124° |
| 2026-04-16 07:40 | 35.91088 | 104.94346 | 30405 ft | 500 kts | 124° |
| 2026-04-16 07:40 | 35.89306 | 104.98026 | 30763 ft | 500 kts | 124° |
| 2026-04-16 07:41 | 35.87528 | 105.01711 | 31118 ft | 500 kts | 124° |
| 2026-04-16 07:41 | 35.85753 | 105.05396 | 31427 ft | 500 kts | 124° |
| 2026-04-16 07:41 | 35.83978 | 105.09080 | 31760 ft | 500 kts | 124° |
| 2026-04-16 07:41 | 35.82201 | 105.12763 | 32088 ft | 500 kts | 124° |
| 2026-04-16 07:42 | 35.80421 | 105.16446 | 32408 ft | 500 kts | 124° |
| 2026-04-16 07:42 | 35.78639 | 105.20126 | 32750 ft | 500 kts | 124° |
| 2026-04-16 07:42 | 35.76857 | 105.23806 | 33092 ft | 500 kts | 125° |
| 2026-04-16 07:42 | 35.75073 | 105.27484 | 33236 ft | 500 kts | 125° |
| 2026-04-16 07:43 | 35.73320 | 105.31105 | 33232 ft | 485 kts | 125° |
| 2026-04-16 07:43 | 35.69925 | 105.38105 | 33248 ft | 473 kts | 126° |
| 2026-04-16 07:44 | 35.66539 | 105.45040 | 33237 ft | 473 kts | 126° |
| 2026-04-16 07:44 | 35.63143 | 105.51980 | 33228 ft | 474 kts | 126° |
| 2026-04-16 07:45 | 35.59743 | 105.58923 | 33224 ft | 474 kts | 126° |
| 2026-04-16 07:45 | 35.56339 | 105.65867 | 33219 ft | 475 kts | 126° |
| 2026-04-16 07:46 | 35.53336 | 105.73132 | 33207 ft | 484 kts | 112° |
| 2026-04-16 07:46 | 35.51763 | 105.81210 | 33205 ft | 488 kts | 104° |
| 2026-04-16 07:47 | 35.50539 | 105.89428 | 33208 ft | 491 kts | 103° |
| 2026-04-16 07:47 | 35.49355 | 105.97687 | 33197 ft | 492 kts | 103° |
| 2026-04-16 07:48 | 35.48132 | 106.05953 | 33196 ft | 493 kts | 103° |
| 2026-04-16 07:48 | 35.46881 | 106.14230 | 33193 ft | 494 kts | 104° |
| 2026-04-16 07:49 | 35.45615 | 106.22515 | 33195 ft | 495 kts | 104° |
| 2026-04-16 07:49 | 35.44352 | 106.30765 | 33188 ft | 496 kts | 104° |
| 2026-04-16 07:50 | 35.43071 | 106.39085 | 33186 ft | 497 kts | 104° |
| 2026-04-16 07:50 | 35.41784 | 106.47408 | 33178 ft | 498 kts | 104° |
| 2026-04-16 07:51 | 35.40486 | 106.55765 | 33167 ft | 499 kts | 104° |
| 2026-04-16 07:51 | 35.39183 | 106.64122 | 33163 ft | 499 kts | 104° |